createdAt,value
2018-08-09T00:00:32.695Z,1008.99
2018-08-09T00:01:32.739Z,1008.94
2018-08-09T00:02:32.673Z,1008.92
2018-08-09T00:03:32.717Z,1008.88
2018-08-09T00:04:32.655Z,1008.84
2018-08-09T00:05:32.671Z,1008.88
2018-08-09T00:06:32.640Z,1008.84
2018-08-09T00:07:32.627Z,1008.85
2018-08-09T00:08:32.611Z,1008.84
2018-08-09T00:09:32.624Z,1008.86
2018-08-09T00:10:32.605Z,1008.85
2018-08-09T00:11:32.585Z,1008.87
2018-08-09T00:12:32.566Z,1008.87
2018-08-09T00:13:32.568Z,1008.85
2018-08-09T00:14:32.570Z,1008.84
2018-08-09T00:15:32.546Z,1008.84
2018-08-09T00:16:32.534Z,1008.77
2018-08-09T00:17:32.513Z,1008.80
2018-08-09T00:18:32.503Z,1008.78
2018-08-09T00:19:32.527Z,1008.74
2018-08-09T00:20:32.483Z,1008.74
2018-08-09T00:21:32.494Z,1008.68
2018-08-09T00:22:32.462Z,1008.67
2018-08-09T00:23:32.451Z,1008.69
2018-08-09T00:24:32.439Z,1008.65
2018-08-09T00:25:32.454Z,1008.64
2018-08-09T00:26:32.419Z,1008.59
2018-08-09T00:27:32.410Z,1008.57
2018-08-09T00:28:32.396Z,1008.60
2018-08-09T00:29:32.386Z,1008.63
2018-08-09T00:30:32.406Z,1008.68
2018-08-09T00:31:32.379Z,1008.74
2018-08-09T00:32:32.356Z,1008.74
2018-08-09T00:33:32.346Z,1008.78
2018-08-09T00:34:32.333Z,1008.75
2018-08-09T00:35:32.324Z,1008.76
2018-08-09T00:36:32.335Z,1008.73
2018-08-09T00:37:32.301Z,1008.76
2018-08-09T00:38:32.290Z,1008.73
2018-08-09T00:39:32.282Z,1008.73
2018-08-09T00:40:32.269Z,1008.65
2018-08-09T00:41:32.308Z,1008.63
2018-08-09T00:42:32.252Z,1008.65
2018-08-09T00:43:32.237Z,1008.64
2018-08-09T00:44:32.243Z,1008.69
2018-08-09T00:45:32.215Z,1008.70
2018-08-09T00:46:32.228Z,1008.72
2018-08-09T00:47:32.198Z,1008.79
2018-08-09T00:48:32.183Z,1008.74
2018-08-09T00:49:32.174Z,1008.75
2018-08-09T00:50:32.162Z,1008.75
2018-08-09T00:51:32.187Z,1008.77
2018-08-09T00:52:32.140Z,1008.76
2018-08-09T00:53:32.132Z,1008.75
2018-08-09T00:54:32.136Z,1008.75
2018-08-09T00:55:32.107Z,1008.73
2018-08-09T00:56:32.098Z,1008.67
2018-08-09T00:57:32.109Z,1008.66
2018-08-09T00:58:32.077Z,1008.65
2018-08-09T00:59:32.067Z,1008.65
2018-08-09T01:00:32.061Z,1008.65
2018-08-09T01:01:32.049Z,1008.65
2018-08-09T01:02:32.064Z,1008.63
2018-08-09T01:03:32.023Z,1008.64
2018-08-09T01:04:32.014Z,1008.63
2018-08-09T01:05:32.004Z,1008.58
2018-08-09T01:06:31.989Z,1008.59
2018-08-09T01:07:31.988Z,1008.59
2018-08-09T01:08:31.990Z,1008.53
2018-08-09T01:09:31.957Z,1008.53
2018-08-09T01:10:31.947Z,1008.48
2018-08-09T01:11:31.936Z,1008.54
2018-08-09T01:12:31.925Z,1008.55
2018-08-09T01:13:31.937Z,1008.56
2018-08-09T01:14:31.905Z,1008.56
2018-08-09T01:15:31.892Z,1008.52
2018-08-09T01:16:31.880Z,1008.55
2018-08-09T01:17:31.885Z,1008.56
2018-08-09T01:18:31.886Z,1008.52
2018-08-09T01:19:31.849Z,1008.59
2018-08-09T01:20:31.838Z,1008.64
2018-08-09T01:21:31.829Z,1008.69
2018-08-09T01:22:31.819Z,1008.68
2018-08-09T01:23:31.841Z,1008.71
2018-08-09T01:24:31.794Z,1008.67
2018-08-09T01:25:31.784Z,1008.63
2018-08-09T01:26:31.773Z,1008.65
2018-08-09T01:27:31.763Z,1008.60
2018-08-09T01:28:31.750Z,1008.66
2018-08-09T01:29:31.765Z,1008.66
2018-08-09T01:30:31.736Z,1008.67
2018-08-09T01:31:31.721Z,1008.61
2018-08-09T01:32:31.709Z,1008.59
2018-08-09T01:33:31.702Z,1008.55
2018-08-09T01:34:31.727Z,1008.55
2018-08-09T01:35:31.742Z,1008.51
2018-08-09T01:36:31.890Z,1008.50
2018-08-09T01:37:31.658Z,1008.42
2018-08-09T01:38:31.643Z,1008.44
2018-08-09T01:39:31.633Z,1008.43
2018-08-09T01:40:31.663Z,1008.47
2018-08-09T01:41:31.612Z,1008.47
2018-08-09T01:42:31.600Z,1008.51
2018-08-09T01:43:31.590Z,1008.52
2018-08-09T01:44:31.579Z,1008.52
2018-08-09T01:45:31.591Z,1008.49
2018-08-09T01:46:31.558Z,1008.52
2018-08-09T01:47:31.546Z,1008.52
2018-08-09T01:48:31.535Z,1008.48
2018-08-09T01:49:31.524Z,1008.53
2018-08-09T01:50:31.547Z,1008.45
2018-08-09T01:51:31.505Z,1008.45
2018-08-09T01:52:31.492Z,1008.42
2018-08-09T01:53:31.480Z,1008.43
2018-08-09T01:54:31.471Z,1008.47
2018-08-09T01:55:31.482Z,1008.41
2018-08-09T01:56:31.448Z,1008.37
2018-08-09T01:57:31.438Z,1008.37
2018-08-09T01:58:31.428Z,1008.33
2018-08-09T01:59:31.419Z,1008.29
2018-08-09T02:00:31.437Z,1008.23
2018-08-09T02:01:31.394Z,1008.29
2018-08-09T02:02:31.383Z,1008.30
2018-08-09T02:03:31.379Z,1008.35
2018-08-09T02:04:31.363Z,1008.32
2018-08-09T02:05:31.351Z,1008.28
2018-08-09T02:06:31.367Z,1008.31
2018-08-09T02:07:31.331Z,1008.29
2018-08-09T02:08:31.319Z,1008.29
2018-08-09T02:09:31.311Z,1008.29
2018-08-09T02:10:31.297Z,1008.27
2018-08-09T02:11:31.323Z,1008.23
2018-08-09T02:12:31.275Z,1008.19
2018-08-09T02:13:31.281Z,1008.15
2018-08-09T02:14:31.253Z,1008.14
2018-08-09T02:15:31.248Z,1008.16
2018-08-09T02:16:31.279Z,1008.11
2018-08-09T02:17:31.222Z,1008.14
2018-08-09T02:18:31.218Z,1008.12
2018-08-09T02:19:31.199Z,1008.06
2018-08-09T02:20:31.191Z,1008.05
2018-08-09T02:21:31.180Z,1008.06
2018-08-09T02:22:31.195Z,1008.04
2018-08-09T02:23:31.157Z,1008.07
2018-08-09T02:24:31.147Z,1008.05
2018-08-09T02:25:31.140Z,1008.05
2018-08-09T02:26:31.148Z,1008.02
2018-08-09T02:27:31.144Z,1008.03
2018-08-09T02:28:31.103Z,1008.05
2018-08-09T02:29:31.094Z,1008.02
2018-08-09T02:30:31.084Z,1008.02
2018-08-09T02:31:31.072Z,1007.93
2018-08-09T02:32:31.108Z,1007.94
2018-08-09T02:33:31.064Z,1007.84
2018-08-09T02:34:31.040Z,1007.85
2018-08-09T02:35:31.029Z,1007.82
2018-08-09T02:36:31.042Z,1007.80
2018-08-09T02:37:31.006Z,1007.77
2018-08-09T02:38:31.025Z,1007.78
2018-08-09T02:39:30.988Z,1007.75
2018-08-09T02:40:30.977Z,1007.70
2018-08-09T02:41:30.965Z,1007.70
2018-08-09T02:42:30.959Z,1007.72
2018-08-09T02:43:30.967Z,1007.77
2018-08-09T02:44:30.933Z,1007.79
2018-08-09T02:45:30.924Z,1007.77
2018-08-09T02:46:30.911Z,1007.78
2018-08-09T02:47:30.901Z,1007.78
2018-08-09T02:48:30.914Z,1007.78
2018-08-09T02:49:30.895Z,1007.80
2018-08-09T02:50:30.870Z,1007.77
2018-08-09T02:51:30.858Z,1007.76
2018-08-09T02:52:30.848Z,1007.79
2018-08-09T02:53:30.867Z,1007.81
2018-08-09T02:54:30.826Z,1007.78
2018-08-09T02:55:30.816Z,1007.76
2018-08-09T02:56:30.804Z,1007.75
2018-08-09T02:57:30.795Z,1007.75
2018-08-09T02:58:30.782Z,1007.72
2018-08-09T02:59:30.812Z,1007.67
2018-08-09T03:00:30.762Z,1007.65
2018-08-09T03:01:30.752Z,1007.61
2018-08-09T03:02:30.740Z,1007.61
2018-08-09T03:03:30.732Z,1007.57
2018-08-09T03:04:30.745Z,1007.56
2018-08-09T03:05:30.709Z,1007.57
2018-08-09T03:06:30.698Z,1007.58
2018-08-09T03:07:30.687Z,1007.63
2018-08-09T03:08:30.676Z,1007.62
2018-08-09T03:09:30.706Z,1007.60
2018-08-09T03:10:30.656Z,1007.57
2018-08-09T03:11:30.645Z,1007.52
2018-08-09T03:12:30.637Z,1007.51
2018-08-09T03:13:30.623Z,1007.54
2018-08-09T03:14:30.612Z,1007.55
2018-08-09T03:15:30.627Z,1007.59
2018-08-09T03:16:30.594Z,1007.58
2018-08-09T03:17:30.580Z,1007.56
2018-08-09T03:18:30.572Z,1007.59
2018-08-09T03:19:30.558Z,1007.61
2018-08-09T03:20:30.578Z,1007.57
2018-08-09T03:21:30.537Z,1007.60
2018-08-09T03:22:30.532Z,1007.56
2018-08-09T03:23:30.521Z,1007.54
2018-08-09T03:24:30.629Z,1007.61
2018-08-09T03:25:30.567Z,1007.57
2018-08-09T03:26:30.487Z,1007.57
2018-08-09T03:27:30.472Z,1007.50
2018-08-09T03:28:30.463Z,1007.54
2018-08-09T03:29:30.451Z,1007.51
2018-08-09T03:30:30.442Z,1007.48
2018-08-09T03:31:30.454Z,1007.46
2018-08-09T03:32:30.442Z,1007.53
2018-08-09T03:33:30.410Z,1007.54
2018-08-09T03:34:30.398Z,1007.56
2018-08-09T03:35:30.388Z,1007.54
2018-08-09T03:36:30.400Z,1007.56
2018-08-09T03:37:30.369Z,1007.53
2018-08-09T03:38:30.357Z,1007.59
2018-08-09T03:39:30.346Z,1007.58
2018-08-09T03:40:30.334Z,1007.60
2018-08-09T03:41:30.350Z,1007.58
2018-08-09T03:42:30.313Z,1007.62
2018-08-09T03:43:30.302Z,1007.58
2018-08-09T03:44:30.314Z,1007.56
2018-08-09T03:45:30.285Z,1007.53
2018-08-09T03:46:30.308Z,1007.53
2018-08-09T03:47:30.265Z,1007.44
2018-08-09T03:48:30.249Z,1007.48
2018-08-09T03:49:30.238Z,1007.50
2018-08-09T03:50:30.228Z,1007.49
2018-08-09T03:51:30.217Z,1007.47
2018-08-09T03:52:30.244Z,1007.52
2018-08-09T03:53:30.818Z,1007.54
2018-08-09T03:54:30.187Z,1007.48
2018-08-09T03:55:30.201Z,1007.47
2018-08-09T03:56:30.186Z,1007.49
2018-08-09T03:57:30.235Z,1007.47
2018-08-09T03:58:30.143Z,1007.51
2018-08-09T03:59:30.147Z,1007.47
2018-08-09T04:00:30.124Z,1007.50
2018-08-09T04:01:30.111Z,1007.49
2018-08-09T04:02:30.141Z,1007.45
2018-08-09T04:03:30.091Z,1007.41
2018-08-09T04:04:30.080Z,1007.37
2018-08-09T04:05:30.071Z,1007.37
2018-08-09T04:06:30.062Z,1007.36
2018-08-09T04:07:30.048Z,1007.39
2018-08-09T04:08:30.084Z,1007.40
2018-08-09T04:09:30.069Z,1007.43
2018-08-09T04:10:30.022Z,1007.41
2018-08-09T04:11:30.009Z,1007.45
2018-08-09T04:12:29.996Z,1007.41
2018-08-09T04:13:30.009Z,1007.40
2018-08-09T04:14:29.973Z,1007.39
2018-08-09T04:15:29.963Z,1007.40
2018-08-09T04:16:29.950Z,1007.38
2018-08-09T04:17:29.940Z,1007.37
2018-08-09T04:18:29.974Z,1007.39
2018-08-09T04:19:29.919Z,1007.37
2018-08-09T04:20:29.912Z,1007.35
2018-08-09T04:21:29.898Z,1007.30
2018-08-09T04:22:29.889Z,1007.32
2018-08-09T04:23:29.876Z,1007.30
2018-08-09T04:24:29.890Z,1007.31
2018-08-09T04:25:29.863Z,1007.28
2018-08-09T04:26:29.899Z,1007.32
2018-08-09T04:27:29.834Z,1007.33
2018-08-09T04:28:29.824Z,1007.35
2018-08-09T04:29:29.836Z,1007.36
2018-08-09T04:30:29.804Z,1007.42
2018-08-09T04:31:29.799Z,1007.41
2018-08-09T04:32:29.780Z,1007.44
2018-08-09T04:33:29.768Z,1007.42
2018-08-09T04:34:29.781Z,1007.42
2018-08-09T04:35:29.755Z,1007.39
2018-08-09T04:36:29.740Z,1007.34
2018-08-09T04:37:29.728Z,1007.39
2018-08-09T04:38:29.714Z,1007.37
2018-08-09T04:39:29.733Z,1007.35
2018-08-09T04:40:29.692Z,1007.36
2018-08-09T04:41:29.693Z,1007.35
2018-08-09T04:42:29.671Z,1007.28
2018-08-09T04:43:29.660Z,1007.26
2018-08-09T04:44:29.649Z,1007.26
2018-08-09T04:45:29.662Z,1007.21
2018-08-09T04:46:29.627Z,1007.24
2018-08-09T04:47:29.617Z,1007.31
2018-08-09T04:48:29.607Z,1007.33
2018-08-09T04:49:29.595Z,1007.36
2018-08-09T04:50:29.607Z,1007.29
2018-08-09T04:51:29.572Z,1007.33
2018-08-09T04:52:29.566Z,1007.31
2018-08-09T04:53:29.552Z,1007.32
2018-08-09T04:54:29.547Z,1007.33
2018-08-09T04:55:29.563Z,1007.31
2018-08-09T04:56:29.519Z,1007.28
2018-08-09T04:57:29.511Z,1007.24
2018-08-09T04:58:29.588Z,1007.26
2018-08-09T04:59:29.486Z,1007.12
2018-08-09T05:00:29.479Z,1007.15
2018-08-09T05:01:29.488Z,1007.12
2018-08-09T05:02:29.454Z,1007.15
2018-08-09T05:03:29.442Z,1007.18
2018-08-09T05:04:29.464Z,1007.16
2018-08-09T05:05:29.420Z,1007.23
2018-08-09T05:06:29.432Z,1007.26
2018-08-09T05:07:29.399Z,1007.28
2018-08-09T05:08:29.389Z,1007.26
2018-08-09T05:09:29.377Z,1007.23
2018-08-09T05:10:29.367Z,1007.21
2018-08-09T05:11:29.383Z,1007.20
2018-08-09T05:12:29.346Z,1007.21
2018-08-09T05:13:29.335Z,1007.24
2018-08-09T05:14:29.328Z,1007.17
2018-08-09T05:15:29.313Z,1007.15
2018-08-09T05:16:29.334Z,1007.15
2018-08-09T05:17:29.296Z,1007.19
2018-08-09T05:18:29.282Z,1007.16
2018-08-09T05:19:29.291Z,1007.16
2018-08-09T05:20:29.260Z,1007.19
2018-08-09T05:21:29.248Z,1007.24
2018-08-09T05:22:29.261Z,1007.24
2018-08-09T05:23:29.228Z,1007.27
2018-08-09T05:24:29.220Z,1007.20
2018-08-09T05:25:29.205Z,1007.22
2018-08-09T05:26:29.251Z,1007.18
2018-08-09T05:27:29.254Z,1007.14
2018-08-09T05:28:29.172Z,1007.11
2018-08-09T05:29:29.162Z,1007.15
2018-08-09T05:30:29.150Z,1007.11
2018-08-09T05:31:29.139Z,1007.10
2018-08-09T05:32:29.160Z,1007.04
2018-08-09T05:33:29.117Z,1007.00
2018-08-09T05:34:29.109Z,1007.02
2018-08-09T05:35:29.096Z,1006.99
2018-08-09T05:36:29.086Z,1006.96
2018-08-09T05:37:29.099Z,1006.97
2018-08-09T05:38:29.088Z,1006.95
2018-08-09T05:39:29.053Z,1006.92
2018-08-09T05:40:29.047Z,1006.87
2018-08-09T05:41:29.036Z,1006.86
2018-08-09T05:42:29.025Z,1006.81
2018-08-09T05:43:29.034Z,1006.84
2018-08-09T05:44:28.999Z,1006.82
2018-08-09T05:45:28.989Z,1006.83
2018-08-09T05:46:28.979Z,1006.90
2018-08-09T05:47:28.971Z,1006.87
2018-08-09T05:48:28.980Z,1006.82
2018-08-09T05:49:28.947Z,1006.78
2018-08-09T05:50:28.939Z,1006.71
2018-08-09T05:51:28.931Z,1006.78
2018-08-09T05:52:28.916Z,1006.82
2018-08-09T05:53:28.932Z,1006.92
2018-08-09T05:54:28.893Z,1006.84
2018-08-09T05:55:28.883Z,1006.78
2018-08-09T05:56:28.876Z,1006.76
2018-08-09T05:57:28.861Z,1006.76
2018-08-09T05:58:28.950Z,1006.80
2018-08-09T05:59:28.840Z,1006.80
2018-08-09T06:00:28.850Z,1006.78
2018-08-09T06:01:28.818Z,1006.79
2018-08-09T06:02:28.807Z,1006.77
2018-08-09T06:03:28.796Z,1006.76
2018-08-09T06:04:28.812Z,1006.77
2018-08-09T06:05:28.779Z,1006.76
2018-08-09T06:06:28.765Z,1006.79
2018-08-09T06:07:28.754Z,1006.80
2018-08-09T06:08:28.745Z,1006.81
2018-08-09T06:09:28.757Z,1006.71
2018-08-09T06:10:28.722Z,1006.71
2018-08-09T06:11:28.714Z,1006.65
2018-08-09T06:12:28.702Z,1006.60
2018-08-09T06:13:28.728Z,1006.60
2018-08-09T06:14:28.728Z,1006.54
2018-08-09T06:15:28.670Z,1006.49
2018-08-09T06:16:28.659Z,1006.40
2018-08-09T06:17:28.648Z,1006.43
2018-08-09T06:18:28.640Z,1006.43
2018-08-09T06:19:28.627Z,1006.45
2018-08-09T06:20:28.639Z,1006.42
2018-08-09T06:21:28.605Z,1006.49
2018-08-09T06:22:28.594Z,1006.46
2018-08-09T06:23:28.595Z,1006.47
2018-08-09T06:24:28.575Z,1006.49
2018-08-09T06:25:28.588Z,1006.47
2018-08-09T06:26:28.694Z,1006.43
2018-08-09T06:27:28.540Z,1006.42
2018-08-09T06:28:28.582Z,1006.41
2018-08-09T06:29:28.520Z,1006.39
2018-08-09T06:30:28.561Z,1006.36
2018-08-09T06:31:28.502Z,1006.37
2018-08-09T06:32:28.491Z,1006.34
2018-08-09T06:33:28.494Z,1006.34
2018-08-09T06:34:28.466Z,1006.31
2018-08-09T06:35:28.459Z,1006.24
2018-08-09T06:36:28.490Z,1006.19
2018-08-09T06:37:28.434Z,1006.18
2018-08-09T06:38:28.423Z,1006.12
2018-08-09T06:39:28.413Z,1006.08
2018-08-09T06:40:28.401Z,1006.03
2018-08-09T06:41:28.416Z,1006.01
2018-08-09T06:42:28.380Z,1005.99
2018-08-09T06:43:28.369Z,1005.97
2018-08-09T06:44:28.371Z,1005.92
2018-08-09T06:45:28.349Z,1005.98
2018-08-09T06:46:28.378Z,1005.98
2018-08-09T06:47:28.330Z,1005.96
2018-08-09T06:48:28.321Z,1005.99
2018-08-09T06:49:28.305Z,1006.01
2018-08-09T06:50:28.296Z,1006.01
2018-08-09T06:51:28.314Z,1006.01
2018-08-09T06:52:28.274Z,1005.99
2018-08-09T06:53:28.263Z,1005.99
2018-08-09T06:54:28.253Z,1005.94
2018-08-09T06:55:28.242Z,1005.92
2018-08-09T06:56:28.232Z,1005.92
2018-08-09T06:57:28.245Z,1005.92
2018-08-09T06:58:28.212Z,1005.95
2018-08-09T06:59:28.205Z,1005.94
2018-08-09T07:00:28.209Z,1005.89
2018-08-09T07:01:28.180Z,1005.94
2018-08-09T07:02:28.198Z,1005.86
2018-08-09T07:03:28.166Z,1005.83
2018-08-09T07:04:28.145Z,1005.85
2018-08-09T07:05:28.138Z,1005.83
2018-08-09T07:06:28.124Z,1005.78
2018-08-09T07:07:28.153Z,1005.77
2018-08-09T07:08:28.103Z,1005.78
2018-08-09T07:09:28.106Z,1005.77
2018-08-09T07:10:28.083Z,1005.79
2018-08-09T07:11:28.070Z,1005.85
2018-08-09T07:12:28.060Z,1005.85
2018-08-09T07:13:28.081Z,1005.76
2018-08-09T07:14:28.037Z,1005.71
2018-08-09T07:15:28.030Z,1005.78
2018-08-09T07:16:28.017Z,1005.76
2018-08-09T07:17:28.005Z,1005.79
2018-08-09T07:18:28.024Z,1005.83
2018-08-09T07:19:27.984Z,1005.84
2018-08-09T07:20:28.028Z,1005.89
2018-08-09T07:21:27.962Z,1005.84
2018-08-09T07:22:27.960Z,1005.89
2018-08-09T07:23:27.941Z,1005.80
2018-08-09T07:24:27.956Z,1005.81
2018-08-09T07:25:27.919Z,1005.80
2018-08-09T07:26:27.960Z,1005.77
2018-08-09T07:27:27.898Z,1005.77
2018-08-09T07:28:27.894Z,1005.79
2018-08-09T07:29:27.904Z,1005.79
2018-08-09T07:30:27.868Z,1005.75
2018-08-09T07:31:27.856Z,1005.72
2018-08-09T07:32:27.857Z,1005.62
2018-08-09T07:33:27.835Z,1005.65
2018-08-09T07:34:27.855Z,1005.70
2018-08-09T07:35:27.820Z,1005.70
2018-08-09T07:36:27.829Z,1005.67
2018-08-09T07:37:27.794Z,1005.67
2018-08-09T07:38:27.783Z,1005.63
2018-08-09T07:39:27.882Z,1005.59
2018-08-09T07:40:27.786Z,1005.62
2018-08-09T07:41:27.751Z,1005.57
2018-08-09T07:42:27.740Z,1005.55
2018-08-09T07:43:27.730Z,1005.54
2018-08-09T07:44:27.719Z,1005.52
2018-08-09T07:45:27.756Z,1005.50
2018-08-09T07:46:27.701Z,1005.55
2018-08-09T07:47:27.687Z,1005.60
2018-08-09T07:48:27.721Z,1005.55
2018-08-09T07:49:27.673Z,1005.64
2018-08-09T07:50:27.683Z,1005.64
2018-08-09T07:51:27.670Z,1005.62
2018-08-09T07:52:27.638Z,1005.60
2018-08-09T07:53:27.625Z,1005.59
2018-08-09T07:54:27.735Z,1005.58
2018-08-09T07:55:27.602Z,1005.54
2018-08-09T07:56:27.621Z,1005.57
2018-08-09T07:57:27.593Z,1005.53
2018-08-09T07:58:27.571Z,1005.53
2018-08-09T07:59:27.561Z,1005.46
2018-08-09T08:00:27.552Z,1005.41
2018-08-09T08:01:27.567Z,1005.41
2018-08-09T08:02:27.531Z,1005.29
2018-08-09T08:03:27.529Z,1005.31
2018-08-09T08:04:27.515Z,1005.26
2018-08-09T08:05:27.504Z,1005.22
2018-08-09T08:06:27.525Z,1005.14
2018-08-09T08:07:27.474Z,1005.14
2018-08-09T08:08:27.512Z,1005.10
2018-08-09T08:09:27.462Z,1005.08
2018-08-09T08:10:27.444Z,1005.05
2018-08-09T08:11:27.435Z,1005.06
2018-08-09T08:12:27.446Z,1005.07
2018-08-09T08:13:27.409Z,1005.14
2018-08-09T08:14:27.398Z,1005.11
2018-08-09T08:15:27.388Z,1005.06
2018-08-09T08:16:27.377Z,1005.07
2018-08-09T08:17:27.390Z,1005.06
2018-08-09T08:18:27.355Z,1005.03
2018-08-09T08:19:27.345Z,1004.97
2018-08-09T08:20:27.333Z,1004.97
2018-08-09T08:21:27.324Z,1004.94
2018-08-09T08:22:27.348Z,1004.93
2018-08-09T08:23:27.301Z,1004.96
2018-08-09T08:24:27.297Z,1004.95
2018-08-09T08:25:27.281Z,1004.98
2018-08-09T08:26:27.267Z,1004.95
2018-08-09T08:27:27.280Z,1004.92
2018-08-09T08:28:27.296Z,1004.99
2018-08-09T08:29:27.237Z,1004.97
2018-08-09T08:30:27.225Z,1004.96
2018-08-09T08:31:27.214Z,1004.99
2018-08-09T08:32:27.203Z,1005.02
2018-08-09T08:33:27.220Z,1004.97
2018-08-09T08:34:27.210Z,1004.95
2018-08-09T08:35:27.170Z,1004.91
2018-08-09T08:36:27.187Z,1004.93
2018-08-09T08:37:27.149Z,1004.93
2018-08-09T08:38:27.161Z,1004.88
2018-08-09T08:39:27.128Z,1004.86
2018-08-09T08:40:27.116Z,1004.89
2018-08-09T08:41:27.162Z,1004.86
2018-08-09T08:42:27.094Z,1004.85
2018-08-09T08:43:27.113Z,1004.78
2018-08-09T08:44:27.095Z,1004.79
2018-08-09T08:45:27.061Z,1004.82
2018-08-09T08:46:27.051Z,1004.86
2018-08-09T08:47:27.065Z,1004.89
2018-08-09T08:48:27.034Z,1004.92
2018-08-09T08:49:27.046Z,1004.89
2018-08-09T08:50:27.008Z,1004.85
2018-08-09T08:51:27.001Z,1004.81
2018-08-09T08:52:26.989Z,1004.75
2018-08-09T08:53:26.979Z,1004.75
2018-08-09T08:54:27.017Z,1004.84
2018-08-09T08:55:26.957Z,1004.77
2018-08-09T08:56:26.945Z,1004.82
2018-08-09T08:57:26.935Z,1004.81
2018-08-09T08:58:26.925Z,1004.73
2018-08-09T08:59:26.942Z,1004.72
2018-08-09T09:00:26.907Z,1004.70
2018-08-09T09:01:26.899Z,1004.62
2018-08-09T09:02:26.882Z,1004.57
2018-08-09T09:03:26.891Z,1004.51
2018-08-09T09:04:26.919Z,1004.50
2018-08-09T09:05:26.881Z,1004.44
2018-08-09T09:06:26.840Z,1004.33
2018-08-09T09:07:26.848Z,1004.26
2018-08-09T09:08:26.819Z,1004.23
2018-08-09T09:09:26.823Z,1004.14
2018-08-09T09:10:26.824Z,1004.12
2018-08-09T09:11:26.789Z,1004.09
2018-08-09T09:12:26.777Z,1004.11
2018-08-09T09:13:26.767Z,1004.07
2018-08-09T09:14:26.757Z,1004.08
2018-08-09T09:15:26.772Z,1004.10
2018-08-09T09:16:26.735Z,1004.06
2018-08-09T09:17:26.729Z,1004.08
2018-08-09T09:18:26.714Z,1004.03
2018-08-09T09:19:26.705Z,1004.03
2018-08-09T09:20:26.739Z,1004.00
2018-08-09T09:21:26.683Z,1003.97
2018-08-09T09:22:26.673Z,1003.95
2018-08-09T09:23:26.661Z,1003.95
2018-08-09T09:24:26.650Z,1003.93
2018-08-09T09:25:26.664Z,1003.91
2018-08-09T09:26:26.630Z,1003.87
2018-08-09T09:27:26.619Z,1003.88
2018-08-09T09:28:26.610Z,1003.81
2018-08-09T09:29:26.602Z,1003.81
2018-08-09T09:30:26.637Z,1003.70
2018-08-09T09:31:26.579Z,1003.68
2018-08-09T09:32:26.568Z,1003.62
2018-08-09T09:33:26.558Z,1003.57
2018-08-09T09:34:26.546Z,1003.53
2018-08-09T09:35:26.538Z,1003.47
2018-08-09T09:36:26.552Z,1003.41
2018-08-09T09:37:26.523Z,1003.47
2018-08-09T09:38:26.506Z,1003.45
2018-08-09T09:39:26.494Z,1003.44
2018-08-09T09:40:26.485Z,1003.39
2018-08-09T09:41:26.517Z,1003.31
2018-08-09T09:42:26.478Z,1003.26
2018-08-09T09:43:26.452Z,1003.22
2018-08-09T09:44:26.445Z,1003.09
2018-08-09T09:45:26.432Z,1003.07
2018-08-09T09:46:26.451Z,1003.01
2018-08-09T09:47:26.411Z,1002.94
2018-08-09T09:48:26.402Z,1002.90
2018-08-09T09:49:26.390Z,1002.93
2018-08-09T09:50:26.380Z,1002.88
2018-08-09T09:51:26.369Z,1002.87
2018-08-09T09:52:26.388Z,1002.82
2018-08-09T09:53:26.371Z,1002.76
2018-08-09T09:54:26.375Z,1002.70
2018-08-09T09:55:26.330Z,1002.67
2018-08-09T09:56:26.320Z,1002.66
2018-08-09T09:57:26.331Z,1002.65
2018-08-09T09:58:26.295Z,1002.65
2018-08-09T09:59:26.286Z,1002.62
2018-08-09T10:00:26.274Z,1002.61
2018-08-09T10:01:26.266Z,1002.57
2018-08-09T10:02:26.280Z,1002.54
2018-08-09T10:03:26.257Z,1002.46
2018-08-09T10:04:26.232Z,1002.51
2018-08-09T10:05:26.224Z,1002.42
2018-08-09T10:06:26.212Z,1002.40
2018-08-09T10:07:26.236Z,1002.39
2018-08-09T10:08:26.192Z,1002.31
2018-08-09T10:09:26.180Z,1002.28
2018-08-09T10:10:26.221Z,1002.33
2018-08-09T10:11:26.158Z,1002.31
2018-08-09T10:12:26.171Z,1002.38
2018-08-09T10:13:26.140Z,1002.39
2018-08-09T10:14:26.129Z,1002.42
2018-08-09T10:15:26.116Z,1002.46
2018-08-09T10:16:26.124Z,1002.53
2018-08-09T10:17:26.119Z,1002.55
2018-08-09T10:18:26.085Z,1002.49
2018-08-09T10:19:26.074Z,1002.45
2018-08-09T10:20:26.067Z,1002.32
2018-08-09T10:21:26.054Z,1002.36
2018-08-09T10:22:26.069Z,1002.32
2018-08-09T10:23:26.037Z,1002.28
2018-08-09T10:24:26.023Z,1002.25
2018-08-09T10:25:26.012Z,1002.20
2018-08-09T10:26:26.017Z,1002.21
2018-08-09T10:27:26.017Z,1002.17
2018-08-09T10:28:25.983Z,1002.16
2018-08-09T10:29:25.971Z,1002.09
2018-08-09T10:30:25.965Z,1002.05
2018-08-09T10:31:25.951Z,1002.02
2018-08-09T10:32:25.968Z,1002.03
2018-08-09T10:33:25.931Z,1002.05
2018-08-09T10:34:25.919Z,1001.94
2018-08-09T10:35:25.923Z,1002.06
2018-08-09T10:36:25.922Z,1002.08
2018-08-09T10:37:25.889Z,1002.04
2018-08-09T10:38:25.926Z,1002.04
2018-08-09T10:39:25.870Z,1002.05
2018-08-09T10:40:25.857Z,1002.05
2018-08-09T10:41:25.848Z,1002.06
2018-08-09T10:42:25.842Z,1002.12
2018-08-09T10:43:25.854Z,1002.09
2018-08-09T10:44:25.818Z,1002.12
2018-08-09T10:45:25.812Z,1002.10
2018-08-09T10:46:25.796Z,1002.12
2018-08-09T10:47:25.788Z,1002.10
2018-08-09T10:48:25.805Z,1002.06
2018-08-09T10:49:25.799Z,1002.10
2018-08-09T10:50:25.755Z,1002.09
2018-08-09T10:51:25.779Z,1002.09
2018-08-09T10:52:25.744Z,1002.04
2018-08-09T10:53:25.726Z,1002.09
2018-08-09T10:54:25.740Z,1002.09
2018-08-09T10:55:25.705Z,1002.09
2018-08-09T10:56:25.700Z,1002.06
2018-08-09T10:57:25.691Z,1001.95
2018-08-09T10:58:25.675Z,1001.88
2018-08-09T10:59:25.728Z,1001.85
2018-08-09T11:00:25.654Z,1001.79
2018-08-09T11:01:25.644Z,1001.76
2018-08-09T11:02:25.640Z,1001.71
2018-08-09T11:03:25.624Z,1001.61
2018-08-09T11:04:25.643Z,1001.58
2018-08-09T11:05:25.604Z,1001.57
2018-08-09T11:06:25.602Z,1001.59
2018-08-09T11:07:25.589Z,1001.62
2018-08-09T11:08:25.578Z,1001.61
2018-08-09T11:09:25.625Z,1001.67
2018-08-09T11:10:25.578Z,1001.66
2018-08-09T11:11:25.545Z,1001.66
2018-08-09T11:12:25.536Z,1001.64
2018-08-09T11:13:25.523Z,1001.65
2018-08-09T11:14:25.513Z,1001.57
2018-08-09T11:15:25.527Z,1001.51
2018-08-09T11:16:25.491Z,1001.46
2018-08-09T11:17:25.481Z,1001.42
2018-08-09T11:18:25.472Z,1001.42
2018-08-09T11:19:25.720Z,1001.55
2018-08-09T11:20:25.474Z,1001.67
2018-08-09T11:21:25.453Z,1001.77
2018-08-09T11:22:25.452Z,1001.68
2018-08-09T11:23:25.420Z,1001.73
2018-08-09T11:24:25.414Z,1001.74
2018-08-09T11:25:25.437Z,1001.64
2018-08-09T11:26:25.406Z,1001.61
2018-08-09T11:27:25.381Z,1001.59
2018-08-09T11:28:25.377Z,1001.55
2018-08-09T11:29:25.375Z,1001.46
2018-08-09T11:30:25.367Z,1001.43
2018-08-09T11:31:25.372Z,1001.36
2018-08-09T11:32:25.354Z,1001.24
2018-08-09T11:33:25.327Z,1001.12
2018-08-09T11:34:25.318Z,1001.17
2018-08-09T11:35:25.304Z,1001.10
2018-08-09T11:36:25.319Z,1001.07
2018-08-09T11:37:25.285Z,1000.95
2018-08-09T11:38:25.285Z,1000.95
2018-08-09T11:39:25.267Z,1000.96
2018-08-09T11:40:25.260Z,1000.88
2018-08-09T11:41:25.280Z,1000.80
2018-08-09T11:42:25.260Z,1000.78
2018-08-09T11:43:25.230Z,1000.75
2018-08-09T11:44:25.222Z,1000.67
2018-08-09T11:45:25.205Z,1000.68
2018-08-09T11:46:25.198Z,1000.53
2018-08-09T11:47:25.209Z,1000.58
2018-08-09T11:48:25.189Z,1000.53
2018-08-09T11:49:25.230Z,1000.55
2018-08-09T11:50:25.170Z,1000.57
2018-08-09T11:51:25.147Z,1000.51
2018-08-09T11:52:25.193Z,1000.52
2018-08-09T11:53:25.139Z,1000.56
2018-08-09T11:54:25.166Z,1000.55
2018-08-09T11:55:25.126Z,1000.67
2018-08-09T11:56:25.144Z,1000.65
2018-08-09T11:57:25.084Z,1000.67
2018-08-09T11:58:25.106Z,1000.70
2018-08-09T11:59:25.068Z,1000.65
2018-08-09T12:00:25.056Z,1000.60
2018-08-09T12:01:25.089Z,1000.68
2018-08-09T12:02:25.033Z,1000.59
2018-08-09T12:03:25.092Z,1000.56
2018-08-09T12:04:25.073Z,1000.62
2018-08-09T12:05:25.022Z,1000.66